Time;durP1;ratioP1;P1;durP2;ratioP2;P2;SDS_P1;SDS_P2;PMS_P1;PMS_P2;Temp;Humidity;BMP_temperature;BMP_pressure;BME280_temperature;BME280_humidity;BME280_pressure;Samples;Min_cycle;Max_cycle;Signal;HPM_P1;HPM_P2
2023/10/15 00:00:31;;;;;;;3.43;1.57;;;9.90;99.90;;;;;;5050794;28;20429;-60
2023/10/15 00:02:58;;;;;;;4.00;1.43;;;9.90;99.90;;;;;;5056145;28;20451;-64
2023/10/15 00:05:27;;;;;;;4.20;1.53;;;9.90;99.90;;;;;;5047646;28;20453;-61
2023/10/15 00:07:54;;;;;;;10.50;1.30;;;9.80;99.90;;;;;;5051068;28;20475;-62
2023/10/15 00:10:34;;;;;;;3.30;1.60;;;9.80;99.90;;;;;;5049995;28;20433;-65
2023/10/15 00:13:05;;;;;;;4.40;2.20;;;9.80;99.90;;;;;;5036369;28;20457;-61
2023/10/15 00:15:32;;;;;;;10.57;2.03;;;9.70;99.90;;;;;;5037058;28;20516;-55
2023/10/15 00:18:07;;;;;;;2.90;2.07;;;9.70;99.90;;;;;;5051849;28;20452;-57
2023/10/15 00:20:42;;;;;;;3.13;1.63;;;9.70;99.90;;;;;;5056354;28;20428;-57
2023/10/15 00:23:10;;;;;;;2.40;1.27;;;9.70;99.90;;;;;;5056133;28;20459;-60
2023/10/15 00:25:47;;;;;;;4.43;1.03;;;9.60;99.90;;;;;;5056147;28;20472;-55
2023/10/15 00:28:15;;;;;;;2.10;1.10;;;9.60;99.90;;;;;;5056438;28;20426;-65
2023/10/15 00:30:43;;;;;;;8.00;1.70;;;9.70;99.90;;;;;;5056216;28;20440;-62
2023/10/15 00:33:13;;;;;;;15.90;3.70;;;9.70;99.90;;;;;;5056639;28;20474;-56
2023/10/15 00:35:45;;;;;;;2.90;1.00;;;9.60;99.90;;;;;;5056241;28;20500;-63
2023/10/15 00:38:19;;;;;;;2.90;1.20;;;9.60;99.90;;;;;;5051725;28;20551;-58
2023/10/15 00:40:51;;;;;;;9.53;1.77;;;9.60;99.90;;;;;;5039391;28;20429;-62
2023/10/15 00:43:21;;;;;;;5.50;1.73;;;9.50;99.90;;;;;;5036089;28;20449;-62
2023/10/15 00:45:48;;;;;;;5.13;1.93;;;9.60;99.90;;;;;;5035197;28;20444;-63
2023/10/15 00:48:24;;;;;;;3.00;1.43;;;9.50;99.90;;;;;;5035981;28;20434;-62
2023/10/15 00:50:55;;;;;;;5.37;1.10;;;9.60;99.90;;;;;;5035709;28;20420;-65
2023/10/15 00:53:25;;;;;;;7.13;2.20;;;9.50;99.90;;;;;;5035842;28;20532;-63
2023/10/15 00:56:00;;;;;;;9.60;2.63;;;9.50;99.90;;;;;;5035844;28;20468;-65
2023/10/15 00:58:34;;;;;;;3.90;1.30;;;9.50;99.90;;;;;;5035333;28;20456;-56
2023/10/15 01:03:48;;;;;;;7.17;1.63;;;9.40;99.90;;;;;;5035970;28;20504;-61
2023/10/15 01:06:28;;;;;;;9.67;2.17;;;9.40;99.90;;;;;;5043141;28;20551;-60
2023/10/15 01:08:58;;;;;;;3.40;1.73;;;9.40;99.90;;;;;;5055609;28;20447;-60
2023/10/15 01:11:31;;;;;;;8.90;3.23;;;9.40;99.90;;;;;;5047001;28;20473;-57
2023/10/15 01:14:01;;;;;;;6.07;1.90;;;9.40;99.90;;;;;;5049399;28;20444;-62
2023/10/15 01:16:31;;;;;;;9.33;1.67;;;9.40;99.90;;;;;;5054995;28;20449;-61
2023/10/15 01:19:14;;;;;;;3.97;1.30;;;9.40;99.90;;;;;;5051076;28;20447;-60
2023/10/15 01:21:51;;;;;;;5.40;1.70;;;9.40;99.90;;;;;;5039643;28;20429;-60
2023/10/15 01:24:22;;;;;;;7.23;1.70;;;9.40;99.90;;;;;;5039154;28;20473;-61
2023/10/15 01:27:01;;;;;;;5.10;1.37;;;9.30;99.90;;;;;;5039969;28;20444;-60
2023/10/15 01:29:33;;;;;;;6.97;1.03;;;9.30;99.90;;;;;;5050327;28;20456;-64
2023/10/15 01:32:10;;;;;;;3.10;1.20;;;9.30;99.90;;;;;;5059118;28;20502;-56
2023/10/15 01:34:45;;;;;;;5.93;1.70;;;9.30;99.90;;;;;;5058878;28;20446;-58
2023/10/15 01:37:15;;;;;;;3.00;1.20;;;9.30;99.90;;;;;;5045614;28;20436;-57
2023/10/15 01:39:48;;;;;;;16.53;2.17;;;9.20;99.90;;;;;;5040110;28;20429;-61
2023/10/15 01:42:41;;;;;;;5.60;1.50;;;9.20;99.90;;;;;;5041284;28;20449;-57
2023/10/15 01:45:16;;;;;;;5.50;1.57;;;9.20;99.90;;;;;;5040282;28;20453;-60
2023/10/15 01:50:33;;;;;;;5.60;1.43;;;9.30;99.90;;;;;;5060536;28;20408;-56
2023/10/15 01:53:06;;;;;;;3.67;1.00;;;9.30;99.90;;;;;;5059993;28;20519;-55
2023/10/15 01:55:35;;;;;;;4.63;1.13;;;9.30;99.90;;;;;;5059569;28;20436;-58
2023/10/15 01:58:05;;;;;;;10.00;1.80;;;9.20;99.90;;;;;;5059593;28;20496;-63
2023/10/15 02:00:43;;;;;;;6.10;1.60;;;9.20;99.90;;;;;;5058627;28;20445;-62
2023/10/15 02:03:11;;;;;;;4.40;1.63;;;9.20;99.90;;;;;;5059159;28;20442;-57
2023/10/15 02:05:45;;;;;;;5.40;1.27;;;9.20;99.90;;;;;;5056315;28;20451;-61
2023/10/15 02:08:23;;;;;;;3.97;1.33;;;9.20;99.90;;;;;;5059446;28;20548;-64
2023/10/15 02:10:51;;;;;;;6.27;1.97;;;9.20;99.90;;;;;;5058948;28;20511;-57
2023/10/15 02:13:20;;;;;;;5.93;2.30;;;9.20;99.90;;;;;;5045854;28;20488;-64
2023/10/15 02:15:49;;;;;;;5.33;1.63;;;9.20;99.90;;;;;;5037768;28;20455;-61
2023/10/15 02:18:30;;;;;;;1.90;1.57;;;9.20;99.90;;;;;;5037697;28;20433;-64
2023/10/15 02:21:01;;;;;;;3.83;1.33;;;9.20;99.90;;;;;;5037994;28;20553;-61
2023/10/15 02:23:32;;;;;;;9.80;1.83;;;9.20;99.90;;;;;;5037458;28;20873;-63
2023/10/15 02:26:01;;;;;;;2.83;1.80;;;9.10;99.90;;;;;;5037455;28;20459;-62
2023/10/15 02:28:32;;;;;;;4.33;1.83;;;9.10;99.90;;;;;;5036764;28;20503;-59
2023/10/15 02:31:06;;;;;;;9.23;2.70;;;9.00;99.90;;;;;;5038115;28;20433;-62
2023/10/15 02:33:35;;;;;;;9.30;2.17;;;9.00;99.90;;;;;;5038004;28;20553;-64
2023/10/15 02:36:07;;;;;;;5.77;1.67;;;9.00;99.90;;;;;;5056635;28;20468;-60
2023/10/15 02:38:52;;;;;;;3.10;1.27;;;9.10;99.90;;;;;;5057598;28;20432;-61
2023/10/15 02:41:19;;;;;;;6.60;1.40;;;9.10;99.90;;;;;;5058411;28;20468;-63
2023/10/15 02:43:53;;;;;;;2.03;1.17;;;9.00;99.90;;;;;;5058330;28;20470;-63
2023/10/15 02:46:22;;;;;;;4.47;1.17;;;9.00;99.90;;;;;;5057483;28;20424;-63
2023/10/15 02:48:55;;;;;;;4.30;1.30;;;9.00;99.90;;;;;;5052150;28;20472;-65
2023/10/15 02:51:24;;;;;;;4.70;1.20;;;9.00;99.90;;;;;;5038233;28;20449;-61
2023/10/15 02:53:53;;;;;;;9.63;1.83;;;9.00;99.90;;;;;;5037739;28;20476;-59
2023/10/15 02:56:20;;;;;;;12.50;1.60;;;8.90;99.90;;;;;;5037726;28;20445;-63
2023/10/15 02:58:50;;;;;;;6.00;1.70;;;8.90;99.90;;;;;;5037370;28;20425;-60
2023/10/15 03:01:22;;;;;;;9.80;1.40;;;8.90;99.90;;;;;;5037957;28;20432;-58
2023/10/15 03:03:50;;;;;;;7.57;2.17;;;8.90;99.90;;;;;;5039276;28;20482;-56
2023/10/15 03:06:24;;;;;;;9.20;1.87;;;8.90;99.90;;;;;;5057773;28;20734;-60
2023/10/15 03:08:56;;;;;;;5.67;2.97;;;8.90;99.90;;;;;;5042988;28;20492;-59
2023/10/15 03:11:31;;;;;;;10.90;2.33;;;8.90;99.90;;;;;;5037415;28;20453;-58
2023/10/15 03:14:01;;;;;;;3.93;1.27;;;8.90;99.90;;;;;;5052357;28;20432;-61
2023/10/15 03:16:35;;;;;;;8.53;1.90;;;8.80;99.90;;;;;;5056360;28;20444;-64
2023/10/15 03:19:15;;;;;;;4.47;2.00;;;8.80;99.90;;;;;;5056468;28;20443;-60
2023/10/15 03:21:45;;;;;;;4.70;1.97;;;8.80;99.90;;;;;;5056773;28;20494;-62
2023/10/15 03:24:16;;;;;;;5.37;1.60;;;8.80;99.90;;;;;;5056800;28;20483;-63
2023/10/15 03:26:47;;;;;;;6.83;1.93;;;8.80;99.90;;;;;;5057154;28;20436;-57
2023/10/15 03:29:24;;;;;;;1.87;0.87;;;8.70;99.90;;;;;;5055690;28;20468;-64
2023/10/15 03:31:59;;;;;;;2.10;0.93;;;8.70;99.90;;;;;;5056945;28;20495;-61
2023/10/15 03:34:28;;;;;;;5.97;2.20;;;8.70;99.90;;;;;;5049146;28;20456;-61
2023/10/15 03:37:01;;;;;;;7.23;1.73;;;8.70;99.90;;;;;;5057168;28;20519;-60
2023/10/15 03:39:53;;;;;;;6.40;1.73;;;8.70;99.90;;;;;;5056750;28;20445;-62
2023/10/15 03:42:27;;;;;;;2.47;1.40;;;8.70;99.90;;;;;;5056911;28;20543;-58
2023/10/15 03:45:01;;;;;;;14.83;1.87;;;8.70;99.90;;;;;;5057186;28;20429;-61
2023/10/15 03:47:28;;;;;;;11.43;1.90;;;8.70;99.90;;;;;;5056758;28;20502;-61
2023/10/15 03:50:06;;;;;;;5.90;2.07;;;8.60;99.90;;;;;;5056847;28;20457;-63
2023/10/15 03:52:35;;;;;;;7.90;1.50;;;8.60;99.90;;;;;;5056323;28;20432;-60
2023/10/15 03:55:04;;;;;;;4.60;2.10;;;8.60;99.90;;;;;;5054836;28;20498;-60
2023/10/15 03:57:34;;;;;;;6.10;1.40;;;8.60;99.90;;;;;;5056231;28;20448;-62
2023/10/15 04:00:14;;;;;;;7.50;1.63;;;8.60;99.90;;;;;;5055715;28;20460;-61
2023/10/15 04:03:00;;;;;;;6.70;1.37;;;8.60;99.90;;;;;;5040808;28;20461;-64
2023/10/15 04:05:33;;;;;;;11.10;2.03;;;8.50;99.90;;;;;;5039145;28;20533;-61
2023/10/15 04:08:00;;;;;;;13.80;2.33;;;8.50;99.90;;;;;;5036878;28;20470;-63
2023/10/15 04:10:33;;;;;;;3.70;1.90;;;8.50;99.90;;;;;;5035863;28;20445;-64
2023/10/15 04:13:00;;;;;;;2.67;1.30;;;8.50;99.90;;;;;;5048661;28;20460;-57
2023/10/15 04:15:31;;;;;;;7.63;3.50;;;8.50;99.90;;;;;;5056002;28;20527;-58
2023/10/15 04:18:04;;;;;;;4.17;1.57;;;8.40;99.90;;;;;;5055126;28;20464;-61
2023/10/15 04:20:41;;;;;;;9.93;1.93;;;8.50;99.90;;;;;;5047814;28;20472;-64
2023/10/15 04:23:11;;;;;;;3.83;1.23;;;8.50;99.90;;;;;;5052386;28;20451;-61
2023/10/15 04:25:38;;;;;;;15.50;2.20;;;8.50;99.90;;;;;;5040860;28;20445;-60
2023/10/15 04:28:12;;;;;;;12.00;2.00;;;8.50;99.90;;;;;;5035137;28;20485;-62
2023/10/15 04:30:44;;;;;;;9.33;1.70;;;8.50;99.90;;;;;;5035190;28;20477;-64
2023/10/15 04:33:17;;;;;;;7.73;1.37;;;8.50;99.90;;;;;;5035639;28;20448;-62
2023/10/15 04:35:43;;;;;;;4.73;2.03;;;8.50;99.90;;;;;;5052099;28;20503;-61
2023/10/15 04:38:21;;;;;;;4.67;2.30;;;8.50;99.90;;;;;;5054591;28;20452;-62
2023/10/15 04:41:00;;;;;;;4.93;1.27;;;8.40;99.90;;;;;;5055152;28;20416;-64
2023/10/15 04:43:28;;;;;;;3.37;1.50;;;8.50;99.90;;;;;;5055156;28;20459;-58
2023/10/15 04:46:03;;;;;;;3.30;1.00;;;8.40;99.90;;;;;;5055303;28;20486;-59
2023/10/15 04:48:36;;;;;;;1.93;1.07;;;8.40;99.90;;;;;;5055033;28;20498;-62
2023/10/15 04:51:11;;;;;;;2.63;1.40;;;8.40;99.90;;;;;;5054442;28;20445;-64
2023/10/15 04:53:39;;;;;;;7.63;1.30;;;8.50;99.90;;;;;;5039290;28;20490;-57
2023/10/15 04:56:11;;;;;;;12.77;2.30;;;8.40;99.90;;;;;;5038749;28;20475;-62
2023/10/15 04:58:38;;;;;;;4.63;1.60;;;8.40;99.90;;;;;;5038901;28;20429;-63
2023/10/15 05:01:12;;;;;;;6.00;1.40;;;8.40;99.90;;;;;;5052574;28;20436;-61
2023/10/15 05:03:45;;;;;;;10.03;1.70;;;8.40;99.90;;;;;;5059376;28;20444;-63
2023/10/15 05:06:15;;;;;;;5.63;1.57;;;8.40;99.90;;;;;;5038863;28;20456;-60
2023/10/15 05:08:47;;;;;;;5.73;1.77;;;8.80;99.90;;;;;;5038858;28;20465;-63
2023/10/15 05:11:16;;;;;;;3.50;1.50;;;8.30;99.90;;;;;;5039521;28;20473;-64
2023/10/15 05:13:43;;;;;;;2.07;1.07;;;8.30;99.90;;;;;;5053234;28;20519;-63
2023/10/15 05:16:18;;;;;;;8.63;1.43;;;8.30;99.90;;;;;;5060263;28;20440;-50
2023/10/15 05:18:47;;;;;;;2.97;1.27;;;8.30;99.90;;;;;;5060847;28;20487;-61
2023/10/15 05:21:17;;;;;;;4.27;3.00;;;8.40;99.90;;;;;;5043228;28;20445;-57
2023/10/15 05:23:45;;;;;;;6.87;1.70;;;8.40;99.90;;;;;;5060932;28;20480;-62
2023/10/15 05:26:20;;;;;;;5.50;1.30;;;8.30;99.90;;;;;;5060709;28;20436;-69
2023/10/15 05:28:50;;;;;;;10.13;2.00;;;8.30;99.90;;;;;;5060218;28;20468;-62
2023/10/15 05:31:19;;;;;;;4.83;1.60;;;8.30;99.90;;;;;;5060180;28;20420;-63
2023/10/15 05:33:46;;;;;;;12.77;2.00;;;8.30;99.90;;;;;;5060833;28;20444;-53
2023/10/15 05:36:13;;;;;;;8.60;1.33;;;8.30;99.90;;;;;;5060152;28;20452;-57
2023/10/15 05:38:42;;;;;;;8.23;2.23;;;8.30;99.90;;;;;;5060499;28;20425;-51
2023/10/15 05:41:10;;;;;;;5.60;1.30;;;8.30;99.90;;;;;;5060308;28;20464;-67
2023/10/15 05:43:39;;;;;;;5.00;2.10;;;8.30;99.90;;;;;;5060654;28;20432;-67
2023/10/15 05:46:06;;;;;;;4.87;1.67;;;8.30;99.90;;;;;;5057554;28;20445;-56
2023/10/15 05:48:39;;;;;;;7.93;1.67;;;8.30;99.90;;;;;;5040153;28;20484;-65
2023/10/15 05:51:10;;;;;;;6.50;1.63;;;8.30;99.90;;;;;;5053782;28;20440;-65
2023/10/15 05:53:43;;;;;;;6.60;1.73;;;8.40;99.90;;;;;;5040341;28;20516;-58
2023/10/15 05:56:10;;;;;;;3.97;1.10;;;8.30;99.90;;;;;;5040199;28;20508;-63
2023/10/15 05:58:37;;;;;;;6.00;1.67;;;8.30;99.90;;;;;;5040178;28;20452;-61
2023/10/15 06:01:04;;;;;;;3.33;1.63;;;8.30;99.90;;;;;;5040837;28;20428;-58
2023/10/15 06:03:31;;;;;;;2.27;1.33;;;8.30;99.90;;;;;;5048949;28;20455;-59
2023/10/15 06:06:02;;;;;;;7.30;2.03;;;8.30;99.90;;;;;;5047579;28;20457;-61
2023/10/15 06:08:32;;;;;;;3.47;1.20;;;8.40;99.90;;;;;;5040045;28;20468;-60
2023/10/15 06:11:02;;;;;;;4.63;1.30;;;8.40;99.90;;;;;;5040141;28;20461;-55
2023/10/15 06:13:29;;;;;;;2.77;1.30;;;8.30;99.90;;;;;;5040534;28;20449;-57
2023/10/15 06:16:00;;;;;;;10.90;1.90;;;8.30;99.90;;;;;;5040132;28;20472;-64
2023/10/15 06:18:27;;;;;;;8.77;1.67;;;8.30;99.90;;;;;;5047589;28;20463;-56
2023/10/15 06:20:57;;;;;;;5.10;2.17;;;8.40;99.90;;;;;;5040037;28;20448;-63
2023/10/15 06:23:27;;;;;;;4.53;1.67;;;8.40;99.90;;;;;;5039608;28;20464;-57
2023/10/15 06:25:57;;;;;;;2.20;1.00;;;8.50;99.90;;;;;;5039796;28;20429;-56
2023/10/15 06:28:27;;;;;;;10.20;3.67;;;8.50;99.90;;;;;;5043356;28;20464;-64
2023/10/15 06:30:55;;;;;;;4.67;1.20;;;8.50;99.90;;;;;;5058380;28;20471;-58
2023/10/15 06:33:23;;;;;;;6.10;1.23;;;8.50;99.90;;;;;;5058859;28;20451;-60
2023/10/15 06:35:52;;;;;;;2.50;1.17;;;8.50;99.90;;;;;;5059094;28;20452;-63
2023/10/15 06:38:22;;;;;;;1.13;0.87;;;8.60;99.90;;;;;;5045627;28;20457;-61
2023/10/15 06:40:51;;;;;;;3.50;1.00;;;8.50;99.90;;;;;;5039481;28;20492;-61
2023/10/15 06:43:18;;;;;;;15.23;2.07;;;8.60;99.90;;;;;;5052719;28;20471;-65
2023/10/15 06:45:45;;;;;;;3.40;1.20;;;8.60;99.90;;;;;;5059618;28;20444;-63
2023/10/15 06:48:22;;;;;;;4.40;1.87;;;8.50;99.90;;;;;;5059198;28;20462;-67
2023/10/15 06:50:49;;;;;;;14.07;1.77;;;8.60;99.90;;;;;;5043320;28;20463;-56
2023/10/15 06:53:21;;;;;;;9.87;1.90;;;8.60;99.90;;;;;;5039509;28;20445;-58
2023/10/15 06:55:47;;;;;;;6.17;1.50;;;8.60;99.90;;;;;;5039251;28;20470;-57
2023/10/15 06:58:16;;;;;;;3.17;1.33;;;8.60;99.90;;;;;;5039172;28;20453;-60
2023/10/15 07:00:48;;;;;;;8.53;1.50;;;8.60;99.90;;;;;;5039390;28;20449;-55
2023/10/15 07:03:15;;;;;;;11.30;2.17;;;8.70;99.90;;;;;;5045850;28;20433;-56
2023/10/15 07:05:42;;;;;;;8.53;1.57;;;8.70;99.90;;;;;;5054129;28;20495;-60
2023/10/15 07:08:09;;;;;;;3.93;1.30;;;8.70;99.90;;;;;;5051400;28;20481;-57
2023/10/15 07:10:39;;;;;;;2.60;1.20;;;8.70;99.90;;;;;;5048326;28;20453;-53
2023/10/15 07:13:06;;;;;;;4.13;1.57;;;8.80;99.90;;;;;;5048258;28;20441;-57
2023/10/15 07:15:45;;;;;;;4.03;1.10;;;8.80;99.90;;;;;;5057793;28;20448;-58
2023/10/15 07:18:15;;;;;;;15.60;1.80;;;8.80;99.90;;;;;;5041642;28;20417;-57
2023/10/15 07:20:42;;;;;;;10.40;1.50;;;8.80;99.90;;;;;;5038972;28;20437;-56
2023/10/15 07:23:14;;;;;;;6.40;1.20;;;8.90;99.90;;;;;;5039294;28;20436;-58
2023/10/15 07:25:42;;;;;;;1.40;0.90;;;8.90;99.90;;;;;;5039032;28;20414;-67
2023/10/15 07:28:12;;;;;;;3.60;1.40;;;8.90;99.90;;;;;;5042890;28;20479;-58
2023/10/15 07:30:44;;;;;;;2.83;1.20;;;9.00;99.90;;;;;;5066747;28;20473;-56
2023/10/15 07:33:14;;;;;;;4.13;1.83;;;9.00;99.90;;;;;;5059672;28;20470;-60
2023/10/15 07:35:48;;;;;;;9.40;1.63;;;9.00;99.90;;;;;;5068190;28;20432;-57
2023/10/15 07:38:15;;;;;;;4.57;2.20;;;9.00;99.90;;;;;;5068909;28;20556;-59
2023/10/15 07:40:42;;;;;;;10.10;1.80;;;9.10;99.90;;;;;;5054426;28;20448;-62
2023/10/15 07:43:12;;;;;;;10.97;1.70;;;9.20;99.90;;;;;;5070890;28;20476;-61
2023/10/15 07:45:43;;;;;;;7.67;1.57;;;9.30;99.90;;;;;;5066003;28;20430;-64
2023/10/15 07:48:13;;;;;;;6.70;1.63;;;9.40;99.90;;;;;;5061609;28;20441;-63
2023/10/15 07:50:43;;;;;;;9.90;1.60;;;9.50;99.90;;;;;;5048526;28;20473;-59
2023/10/15 07:53:10;;;;;;;4.33;1.47;;;9.70;99.90;;;;;;5051039;28;20479;-51
2023/10/15 07:55:39;;;;;;;4.23;1.77;;;10.00;99.90;;;;;;5054638;28;20449;-55
2023/10/15 07:58:09;;;;;;;3.13;1.33;;;10.40;99.90;;;;;;5046992;28;20429;-62
2023/10/15 08:00:36;;;;;;;2.83;1.70;;;10.40;99.90;;;;;;5049087;28;20477;-56
2023/10/15 08:03:07;;;;;;;3.23;1.23;;;10.30;99.90;;;;;;5042556;28;20461;-62
2023/10/15 08:05:36;;;;;;;4.40;1.43;;;10.20;99.90;;;;;;5048051;28;20420;-55
2023/10/15 08:08:08;;;;;;;4.67;1.50;;;10.20;99.90;;;;;;5050111;28;20521;-62
2023/10/15 08:10:36;;;;;;;4.30;1.30;;;10.00;99.90;;;;;;5043588;28;20462;-57
2023/10/15 08:13:08;;;;;;;4.80;1.83;;;9.90;99.90;;;;;;5047213;28;20447;-61
2023/10/15 08:15:36;;;;;;;4.93;1.33;;;9.90;99.90;;;;;;5045453;28;20455;-61
2023/10/15 08:18:04;;;;;;;5.17;1.17;;;9.80;99.90;;;;;;5048393;28;20471;-61
2023/10/15 08:20:33;;;;;;;2.90;1.60;;;9.70;99.90;;;;;;5045800;28;20429;-62
2023/10/15 08:23:01;;;;;;;2.23;0.80;;;9.70;99.90;;;;;;5051843;28;20479;-64
2023/10/15 08:25:31;;;;;;;4.83;1.13;;;9.80;99.90;;;;;;5056651;28;20480;-58
2023/10/15 08:28:02;;;;;;;7.60;1.17;;;9.90;99.90;;;;;;5057920;28;20494;-60
2023/10/15 08:30:30;;;;;;;7.53;1.20;;;9.90;99.90;;;;;;5056642;28;20441;-58
2023/10/15 08:32:57;;;;;;;4.10;1.23;;;10.00;99.90;;;;;;5049734;28;20587;-52
2023/10/15 08:35:30;;;;;;;4.60;2.30;;;10.00;99.90;;;;;;5060897;28;20439;-53
2023/10/15 08:37:59;;;;;;;3.50;1.30;;;10.00;99.90;;;;;;5050634;28;20406;-63
2023/10/15 08:40:33;;;;;;;1.60;1.40;;;10.10;99.90;;;;;;5052721;28;20451;-61
2023/10/15 08:43:18;;;;;;;8.40;1.50;;;10.00;99.90;;;;;;5055642;28;20447;-59
2023/10/15 08:45:45;;;;;;;2.53;1.03;;;10.00;99.90;;;;;;5061204;28;20460;-54
2023/10/15 08:48:14;;;;;;;2.27;1.07;;;10.10;99.90;;;;;;5061415;28;20451;-60
2023/10/15 08:50:45;;;;;;;3.87;1.70;;;10.10;99.90;;;;;;5042067;28;20453;-53
2023/10/15 08:53:14;;;;;;;6.50;3.53;;;10.20;99.90;;;;;;5041416;28;20421;-61
2023/10/15 08:55:42;;;;;;;2.50;1.37;;;10.30;99.90;;;;;;5040976;28;20460;-63
2023/10/15 08:58:10;;;;;;;2.83;1.50;;;10.20;99.90;;;;;;5041661;28;20493;-58
2023/10/15 09:00:40;;;;;;;3.80;1.73;;;10.20;99.90;;;;;;5060994;28;20447;-64
2023/10/15 09:03:13;;;;;;;5.97;1.23;;;10.20;99.90;;;;;;5061366;28;20427;-55
2023/10/15 09:05:42;;;;;;;4.10;1.00;;;10.20;99.90;;;;;;5052355;28;20429;-62
2023/10/15 09:08:16;;;;;;;2.47;0.80;;;10.20;99.90;;;;;;5046394;28;20460;-52
2023/10/15 09:10:45;;;;;;;1.87;1.67;;;10.40;99.90;;;;;;5048802;28;20444;-60
2023/10/15 09:13:18;;;;;;;2.63;0.80;;;10.50;99.90;;;;;;5048685;28;20476;-61
2023/10/15 09:15:47;;;;;;;2.83;1.10;;;10.60;99.90;;;;;;5051573;28;20420;-64
2023/10/15 09:18:15;;;;;;;3.27;0.90;;;10.80;99.90;;;;;;5049828;28;20424;-59
2023/10/15 09:20:45;;;;;;;3.00;1.00;;;11.00;99.90;;;;;;5052093;28;20442;-50
2023/10/15 09:23:21;;;;;;;2.67;1.60;;;11.20;99.90;;;;;;5068586;28;20430;-59
2023/10/15 09:25:52;;;;;;;5.63;1.30;;;11.10;99.90;;;;;;5068452;28;20447;-65
2023/10/15 09:28:19;;;;;;;1.83;1.23;;;11.00;99.90;;;;;;5065707;28;20428;-64
2023/10/15 09:30:47;;;;;;;1.37;0.80;;;11.00;99.90;;;;;;5076633;28;20455;-61
2023/10/15 09:33:20;;;;;;;2.40;1.03;;;11.00;99.90;;;;;;5075908;28;20463;-54
2023/10/15 09:35:51;;;;;;;2.53;1.30;;;11.10;99.90;;;;;;5060631;28;20523;-61
2023/10/15 09:38:20;;;;;;;2.60;1.10;;;11.10;99.90;;;;;;5059383;28;20420;-63
2023/10/15 09:40:50;;;;;;;8.57;1.33;;;11.30;99.90;;;;;;5060406;28;20468;-59
2023/10/15 09:43:23;;;;;;;2.80;1.17;;;11.20;99.90;;;;;;5060429;28;20439;-60
2023/10/15 09:45:55;;;;;;;3.00;1.30;;;11.10;99.90;;;;;;5060138;28;20428;-59
2023/10/15 09:48:27;;;;;;;3.20;1.23;;;11.10;99.90;;;;;;5059950;28;20487;-61
2023/10/15 09:50:57;;;;;;;8.63;2.70;;;10.90;99.90;;;;;;5060327;28;20429;-63
2023/10/15 09:53:32;;;;;;;3.13;1.27;;;10.80;99.90;;;;;;5060081;28;20433;-59
2023/10/15 09:56:07;;;;;;;5.93;1.37;;;10.80;99.90;;;;;;5060229;28;20453;-62
2023/10/15 09:58:33;;;;;;;1.43;0.80;;;11.10;99.90;;;;;;5059925;28;20467;-57
2023/10/15 10:01:09;;;;;;;2.03;1.10;;;11.60;99.90;;;;;;5060109;28;20432;-61
2023/10/15 10:04:15;;;;;;;7.10;1.17;;;11.70;99.90;;;;;;5060103;28;20484;-61
2023/10/15 10:07:14;;;;;;;3.20;0.90;;;11.50;99.90;;;;;;5059823;28;20472;-59
2023/10/15 10:10:21;;;;;;;1.57;0.97;;;11.60;99.90;;;;;;5034667;28;20472;-65
2023/10/15 10:13:21;;;;;;;4.20;1.17;;;11.80;99.90;;;;;;5059772;28;20432;-65
2023/10/15 10:15:54;;;;;;;2.17;1.20;;;11.80;99.90;;;;;;5059660;28;20476;-55
2023/10/15 10:18:26;;;;;;;3.27;1.00;;;11.80;99.90;;;;;;5059806;28;20462;-63
2023/10/15 10:20:56;;;;;;;2.50;1.00;;;11.60;99.90;;;;;;5059119;28;20463;-55
2023/10/15 10:23:26;;;;;;;5.53;1.10;;;11.40;99.90;;;;;;5059370;28;20456;-64
2023/10/15 10:25:58;;;;;;;7.87;1.50;;;11.20;99.90;;;;;;5059412;28;20479;-56
2023/10/15 10:28:37;;;;;;;3.00;1.13;;;11.00;99.90;;;;;;5059503;28;20480;-61
2023/10/15 10:31:06;;;;;;;4.73;1.17;;;10.90;99.90;;;;;;5059491;28;20424;-61
2023/10/15 10:33:50;;;;;;;6.20;1.07;;;10.90;99.90;;;;;;5059337;28;20432;-55
2023/10/15 10:36:27;;;;;;;2.17;0.70;;;10.90;99.90;;;;;;5059228;28;20417;-60
2023/10/15 10:38:59;;;;;;;2.80;1.00;;;10.90;99.90;;;;;;5059293;28;20427;-57
2023/10/15 10:41:37;;;;;;;9.97;1.17;;;10.70;99.90;;;;;;5058938;28;20433;-61
2023/10/15 10:44:04;;;;;;;2.60;0.80;;;10.80;99.90;;;;;;5058846;28;20523;-56
2023/10/15 10:46:41;;;;;;;2.20;0.80;;;10.80;99.90;;;;;;5072405;28;20455;-54
2023/10/15 10:49:14;;;;;;;3.40;1.23;;;11.00;99.90;;;;;;5064373;28;20491;-61
2023/10/15 10:51:43;;;;;;;2.80;1.30;;;11.10;99.90;;;;;;5068435;28;20474;-61
2023/10/15 10:54:29;;;;;;;2.13;1.13;;;11.00;99.90;;;;;;5065165;28;20476;-61
2023/10/15 10:57:06;;;;;;;3.90;1.40;;;11.10;99.90;;;;;;5069250;28;20450;-57
2023/10/15 10:59:38;;;;;;;1.80;1.00;;;11.10;99.90;;;;;;5068008;28;20451;-63
2023/10/15 11:02:07;;;;;;;2.07;1.00;;;11.00;99.90;;;;;;5067881;28;20419;-58
2023/10/15 11:04:36;;;;;;;1.47;0.70;;;10.90;99.90;;;;;;5068468;28;20506;-54
2023/10/15 11:07:03;;;;;;;3.40;1.20;;;10.80;99.90;;;;;;5062911;28;20441;-65
2023/10/15 11:09:32;;;;;;;1.60;0.87;;;10.80;99.90;;;;;;5048470;28;20468;-60
2023/10/15 11:12:00;;;;;;;11.30;1.37;;;10.90;99.90;;;;;;5047000;28;20460;-63
2023/10/15 11:14:30;;;;;;;1.30;0.77;;;10.90;99.90;;;;;;5049860;28;20425;-60
2023/10/15 11:17:00;;;;;;;2.13;0.90;;;11.00;99.90;;;;;;5062939;28;20452;-57
2023/10/15 11:19:32;;;;;;;1.20;0.90;;;11.30;99.90;;;;;;5066327;28;20450;-60
2023/10/15 11:22:03;;;;;;;4.03;1.50;;;11.50;99.90;;;;;;5066071;28;20459;-62
2023/10/15 11:24:31;;;;;;;1.30;0.97;;;11.70;99.90;;;;;;5063695;28;20480;-62
2023/10/15 11:27:00;;;;;;;1.73;0.90;;;11.70;99.90;;;;;;5071004;28;20459;-64
2023/10/15 11:29:33;;;;;;;1.53;0.73;;;11.90;99.90;;;;;;5066820;28;20482;-64
2023/10/15 11:32:00;;;;;;;2.80;1.30;;;12.10;99.90;;;;;;5045471;28;20441;-60
2023/10/15 11:34:31;;;;;;;5.53;1.40;;;12.10;99.90;;;;;;5064526;28;20452;-57
2023/10/15 11:37:00;;;;;;;4.73;1.47;;;12.00;99.90;;;;;;5059963;28;20492;-57
2023/10/15 11:39:35;;;;;;;1.93;0.90;;;11.90;99.90;;;;;;5050485;28;20509;-58
2023/10/15 11:42:07;;;;;;;1.10;0.87;;;11.70;99.90;;;;;;5044486;28;20485;-61
2023/10/15 11:44:41;;;;;;;1.30;1.00;;;11.60;99.90;;;;;;5049802;28;20483;-61
2023/10/15 11:47:11;;;;;;;1.00;0.70;;;11.50;99.90;;;;;;5052546;28;20447;-61
2023/10/15 11:49:42;;;;;;;2.23;1.00;;;11.40;99.90;;;;;;5053746;28;20585;-62
2023/10/15 11:52:18;;;;;;;1.33;0.90;;;11.40;99.90;;;;;;5046157;28;20437;-58
2023/10/15 11:54:49;;;;;;;2.37;1.00;;;11.30;99.90;;;;;;5046377;28;20471;-67
2023/10/15 11:57:21;;;;;;;1.70;0.90;;;11.20;99.90;;;;;;5047584;28;20402;-55
2023/10/15 12:00:09;;;;;;;1.30;0.80;;;11.20;99.90;;;;;;5047333;28;20457;-63
2023/10/15 12:02:38;;;;;;;5.90;0.80;;;11.10;99.90;;;;;;5051985;28;20461;-60
2023/10/15 12:05:23;;;;;;;1.40;0.90;;;11.10;99.90;;;;;;5046017;28;20532;-59
2023/10/15 12:07:50;;;;;;;1.67;1.00;;;11.00;99.90;;;;;;5045225;28;20512;-59
2023/10/15 12:10:17;;;;;;;1.80;1.17;;;11.10;99.90;;;;;;5052488;28;20492;-62
2023/10/15 12:12:52;;;;;;;3.40;0.70;;;11.10;99.90;;;;;;5044307;28;20426;-56
2023/10/15 12:15:25;;;;;;;1.30;1.00;;;11.10;99.90;;;;;;5043157;28;20478;-66
2023/10/15 12:17:56;;;;;;;4.70;0.93;;;11.00;99.90;;;;;;5042705;28;20460;-58
2023/10/15 12:20:26;;;;;;;3.00;0.90;;;10.90;99.90;;;;;;5045675;28;20469;-64
2023/10/15 12:22:59;;;;;;;2.70;1.60;;;11.00;99.90;;;;;;5045789;28;20435;-62
2023/10/15 12:25:26;;;;;;;2.43;1.17;;;11.10;99.90;;;;;;5044462;28;20453;-61
2023/10/15 12:28:01;;;;;;;2.30;0.80;;;11.30;99.90;;;;;;5046409;28;20468;-62
2023/10/15 12:30:29;;;;;;;4.03;1.30;;;11.50;99.90;;;;;;5046902;28;20494;-61
2023/10/15 12:32:58;;;;;;;1.83;1.00;;;11.70;99.90;;;;;;5050907;28;20453;-63
2023/10/15 12:35:27;;;;;;;2.37;1.33;;;11.80;99.90;;;;;;5045572;28;20436;-60
2023/10/15 12:38:02;;;;;;;2.17;1.33;;;11.80;99.90;;;;;;5045552;28;20480;-58
2023/10/15 12:40:31;;;;;;;5.00;1.07;;;11.80;99.90;;;;;;5049760;28;20419;-58
2023/10/15 12:42:59;;;;;;;2.83;1.00;;;11.80;99.90;;;;;;5046322;28;20555;-59
2023/10/15 12:45:26;;;;;;;2.03;0.90;;;11.60;99.90;;;;;;5043025;28;20429;-55
2023/10/15 12:47:58;;;;;;;1.70;1.00;;;11.60;99.90;;;;;;5048856;28;20449;-60
2023/10/15 12:50:25;;;;;;;5.57;1.13;;;11.50;99.90;;;;;;5051277;28;20456;-62
2023/10/15 12:52:58;;;;;;;3.07;1.00;;;11.50;99.90;;;;;;5048092;28;20468;-63
2023/10/15 12:55:26;;;;;;;1.17;1.00;;;11.60;99.90;;;;;;5047800;28;20448;-63
2023/10/15 12:57:56;;;;;;;3.47;1.17;;;11.70;99.90;;;;;;5046824;28;20501;-58
2023/10/15 13:00:26;;;;;;;4.30;1.40;;;11.80;99.90;;;;;;5045825;28;20432;-62
2023/10/15 13:02:58;;;;;;;3.57;0.90;;;11.80;99.90;;;;;;5050437;28;20435;-57
2023/10/15 13:05:27;;;;;;;2.90;0.90;;;11.80;99.90;;;;;;5047296;28;20449;-58
2023/10/15 13:07:55;;;;;;;4.27;1.53;;;11.60;99.90;;;;;;5047573;28;20425;-60
2023/10/15 13:10:26;;;;;;;1.20;0.80;;;11.50;99.90;;;;;;5042814;28;20484;-61
2023/10/15 13:12:57;;;;;;;1.20;0.93;;;11.50;99.90;;;;;;5048267;28;20421;-59
2023/10/15 13:15:24;;;;;;;1.00;0.70;;;11.40;99.90;;;;;;5058433;28;20467;-55
2023/10/15 13:17:54;;;;;;;8.20;1.33;;;11.30;99.90;;;;;;5060985;28;20428;-58
2023/10/15 13:20:33;;;;;;;5.53;1.03;;;11.30;99.90;;;;;;5060518;28;20443;-57